Data for 05/11/2007

Time Sea-Level Adjusted Pressure Absolute Pressure Temperature Relative Humidity Dew Point   
(mb) (inHg) (mb) (inHg) (C) (F) (%) (C) (F)
00:05 1021 30.15 850 25.1 11.6 52.8 76 7.5 45.5
00:10 1021 30.15 850 25.1 11.7 53.1 75 7.5 45.6
00:15 1021 30.15 850 25.1 11.8 53.3 75 7.6 45.6
00:20 1021 30.15 850 25.1 11.4 52.6 78 7.8 46
00:25 1021 30.15 850 25.1 10.7 51.2 81 7.6 45.6
00:30 1021 30.15 850 25.1 10.6 51 82 7.7 45.9
00:35 1021 30.15 850 25.1 10.5 50.8 84 7.9 46.1
00:40 1021 30.15 850 25.1 10.4 50.8 84 7.9 46.2
00:45 1021 30.15 850 25.1 10.4 50.8 84 7.9 46.2
00:50 1021 30.15 851 25.13 10.2 50.4 85 7.8 46
00:55 1021 30.15 851 25.13 10.2 50.3 85 7.8 46
01:00 1021 30.15 851 25.13 10 50.1 85 7.7 45.9
01:05 1022 30.18 851 25.13 10 50 85 7.7 45.8
01:10 1021 30.15 851 25.13 9.9 49.8 86 7.7 45.8
01:15 1021 30.15 851 25.13 9.8 49.6 87 7.7 45.9
01:20 1021 30.15 851 25.13 9.7 49.5 87 7.7 45.8
01:25 1021 30.15 851 25.13 9.7 49.4 87 7.6 45.7
01:30 1021 30.15 851 25.13 9.7 49.5 87 7.7 45.8
01:35 1021 30.15 851 25.13 9.7 49.4 87 7.7 45.8
01:40 1021 30.15 851 25.13 9.7 49.5 87 7.6 45.7
01:45 1021 30.15 851 25.13 9.8 49.6 86 7.6 45.7
01:50 1021 30.15 851 25.13 9.8 49.6 86 7.6 45.6
01:55 1021 30.15 851 25.13 9.8 49.6 86 7.6 45.6
02:00 1021 30.15 851 25.13 9.7 49.5 86 7.5 45.6
02:05 1021 30.15 851 25.13 9.7 49.4 86 7.5 45.5
02:10 1021 30.15 850 25.1 9.5 49.1 87 7.4 45.4
02:15 1021 30.15 850 25.1 9.3 48.7 87 7.3 45.1
02:20 1021 30.15 850 25.1 9.3 48.8 88 7.4 45.3
02:25 1021 30.15 850 25.1 9.3 48.7 88 7.3 45.2
02:30 1021 30.15 850 25.1 9.2 48.6 88 7.3 45.1
02:35 1021 30.15 850 25.1 9.2 48.5 88 7.3 45.1
02:40 1021 30.15 850 25.1 9.1 48.4 88 7.2 45
02:45 1021 30.15 850 25.1 9.1 48.5 87 7.2 44.9
02:50 1021 30.15 850 25.1 9.2 48.5 87 7.1 44.8
02:55 1021 30.15 850 25.1 9.2 48.5 87 7.1 44.8
03:00 1021 30.15 850 25.1 9 48.2 87 7.1 44.7
03:05 1021 30.15 850 25.1 8.9 48.1 88 7 44.6
03:10 1021 30.15 850 25.1 9 48.2 88 7.1 44.8
03:15 1021 30.15 850 25.1 9 48.3 87 7 44.6
03:20 1021 30.15 850 25.1 8.9 48.1 87 6.9 44.4
03:25 1021 30.15 851 25.13 8.9 47.9 86 6.7 44.1
03:30 1021 30.15 851 25.13 8.9 48 86 6.7 44
03:35 1021 30.15 851 25.13 8.9 48 85 6.6 43.9
03:40 1021 30.15 851 25.13 8.9 48.1 86 6.7 44.1
03:45 1021 30.15 851 25.13 8.9 48 87 6.8 44.2
03:50 1021 30.15 851 25.13 8.5 47.4 88 6.6 43.9
03:55 1021 30.15 851 25.13 8.4 47 88 6.4 43.5
04:00 1021 30.15 851 25.13 8.4 47 87 6.4 43.5
04:05 1021 30.15 851 25.13 8.4 47.2 87 6.4 43.6
04:10 1021 30.15 850 25.1 8.6 47.4 86 6.4 43.6
04:15 1021 30.15 851 25.13 8.6 47.4 87 6.5 43.7
04:20 1021 30.15 850 25.1 8.5 47.4 87 6.5 43.8
04:25 1021 30.15 850 25.1 8.5 47.2 87 6.4 43.6
04:30 1021 30.15 850 25.1 8.3 47 87 6.3 43.3
04:35 1021 30.15 850 25.1 8.3 46.9 85 5.9 42.7
04:40 1021 30.15 850 25.1 8.2 46.7 85 5.8 42.4
04:45 1021 30.15 850 25.1 8 46.5 85 5.6 42.1
04:50 1021 30.15 850 25.1 8.2 46.7 85 5.8 42.4
04:55 1021 30.15 850 25.1 8.3 46.9 85 5.9 42.7
05:00 1021 30.15 850 25.1 8.3 47 85 6 42.7
05:05 1021 30.15 850 25.1 8.2 46.8 86 6 42.8
05:10 1021 30.15 850 25.1 8.1 46.6 86 5.9 42.7
05:15 1021 30.15 850 25.1 8.2 46.8 86 5.9 42.7
05:20 1021 30.15 850 25.1 8.3 46.9 85 5.9 42.6
05:25 1021 30.15 850 25.1 8.3 47 85 6 42.8
05:30 1021 30.15 850 25.1 8.3 47 85 6 42.8
05:35 1021 30.15 850 25.1 8.4 47.1 85 5.9 42.7
05:40 1021 30.15 850 25.1 8.3 47 85 5.9 42.7
05:45 1021 30.15 850 25.1 8.5 47.2 84 6 42.8
05:50 1021 30.15 850 25.1 8.4 47.2 85 6.1 42.9
05:55 1021 30.15 850 25.1 8.2 46.8 85 5.8 42.4
06:00 1021 30.15 850 25.1 8.1 46.5 85 5.6 42.2
06:05 1021 30.15 850 25.1 8.1 46.6 83 5.4 41.7
06:10 1021 30.15 850 25.1 8.2 46.8 82 5.4 41.8
06:15 1021 30.15 850 25.1 7.9 46.2 83 5.3 41.5
06:20 1021 30.15 850 25.1 7.7 45.8 82 4.9 40.8
06:25 1021 30.15 850 25.1 7.5 45.5 83 4.8 40.6
06:30 1021 30.15 850 25.1 7.3 45.1 84 4.7 40.4
06:35 1021 30.15 850 25.1 7.2 44.9 84 4.6 40.2
06:40 1021 30.15 850 25.1 7.3 45.2 82 4.5 40
06:45 1021 30.15 850 25.1 7.2 44.9 83 4.4 40
06:50 1021 30.15 851 25.13 7.5 45.5 81 4.4 39.9
06:55 1021 30.15 851 25.13 7.4 45.4 82 4.5 40.1
07:00 1021 30.15 851 25.13 7.4 45.3 82 4.5 40.2
07:05 1021 30.15 851 25.13 7.6 45.6 81 4.6 40.2
07:10 1021 30.15 851 25.13 8 46.4 80 4.8 40.6
07:15 1021 30.15 851 25.13 8.6 47.5 77 4.9 40.8
07:20 1022 30.18 851 25.13 8.9 48 79 5.4 41.7
07:25 1022 30.18 851 25.13 9 48.2 77 5.3 41.5
07:30 1022 30.18 851 25.13 8.9 48.1 79 5.5 41.9
07:35 1022 30.18 851 25.13 8.9 48.1 80 5.6 42.1
07:40 1022 30.18 851 25.13 9 48.3 80 5.8 42.4
07:45 1022 30.18 851 25.13 9.3 48.7 80 6 42.8
07:50 1022 30.18 851 25.13 9.7 49.5 78 6.1 43.1
07:55 1022 30.18 851 25.13 9.8 49.6 79 6.2 43.2
08:00 1022 30.18 851 25.13 10 50 77 6.3 43.3
08:05 1022 30.18 851 25.13 10.1 50.1 78 6.4 43.4
08:10 1022 30.18 851 25.13 10.5 51 78 6.8 44.2
08:15 1022 30.18 851 25.13 11.1 52 75 6.8 44.3
08:20 1022 30.18 851 25.13 11.5 52.7 74 7 44.6
08:25 1022 30.18 851 25.13 11.8 53.3 72 7 44.6
08:30 1022 30.18 851 25.13 12.1 53.7 69 6.6 43.8
08:35 1022 30.18 851 25.13 12.2 53.9 68 6.4 43.6
08:40 1022 30.18 851 25.13 12.2 54 69 6.8 44.2
08:45 1022 30.18 851 25.13 12.5 54.5 68 6.8 44.2
08:50 1022 30.18 851 25.13 12.9 55.2 67 6.9 44.4
08:55 1022 30.18 851 25.13 12.9 55.2 68 7.2 45
09:00 1022 30.18 851 25.13 13.1 55.5 68 7.4 45.4
09:05 1022 30.18 851 25.13 13.6 56.5 64 7 44.6
09:10 1022 30.18 851 25.13 13.9 56.9 62 6.8 44.3
09:15 1022 30.18 851 25.13 14.1 57.4 61 6.8 44.2
09:20 1022 30.18 851 25.13 14.4 58 59 6.5 43.7
09:25 1022 30.18 851 25.13 14.3 57.8 60 6.6 43.9
09:30 1022 30.18 851 25.13 14.6 58.2 58 6.6 43.8
09:35 1022 30.18 851 25.13 14.8 58.6 58 6.7 44
09:40 1022 30.18 851 25.13 14.8 58.6 58 6.6 43.9
09:45 1022 30.18 851 25.13 14.9 58.7 57 6.5 43.8
09:50 1022 30.18 851 25.13 15.2 59.4 56 6.6 44
09:55 1022 30.18 851 25.13 15.6 60.1 56 6.9 44.5
10:00 1022 30.18 851 25.13 16 60.7 54 6.8 44.2
10:05 1022 30.18 851 25.13 15.8 60.5 57 7.4 45.4
10:10 1022 30.18 851 25.13 15.3 59.6 56 6.8 44.3
10:15 1022 30.18 851 25.13 15.7 60.3 55 6.8 44.2
10:20 1022 30.18 851 25.13 15.4 59.6 56 6.7 44
10:25 1022 30.18 851 25.13 15.7 60.3 55 6.8 44.3
10:30 1022 30.18 851 25.13 16.3 61.3 53 6.7 44.1
10:35 1022 30.18 851 25.13 15.9 60.5 55 6.9 44.3
10:40 1022 30.18 851 25.13 16.7 62.1 50 6.5 43.6
10:45 1022 30.18 851 25.13 16.5 61.7 52 6.8 44.2
10:50 1022 30.18 851 25.13 16.1 61 54 6.8 44.2
10:55 1022 30.18 851 25.13 16.7 62.1 53 7.1 44.7
11:00 1022 30.18 851 25.13 17.3 63.1 50 6.8 44.2
11:05 1022 30.18 851 25.13 17.3 63.2 50 6.9 44.4
11:10 1022 30.18 851 25.13 17.9 64.2 50 7.4 45.2
11:15 1022 30.18 851 25.13 18.6 65.5 47 7.2 45
11:20 1022 30.18 851 25.13 18.8 65.9 48 7.7 45.8
11:25 1022 30.18 851 25.13 18.7 65.6 46 7.1 44.7
11:30 1022 30.18 851 25.13 18.6 65.5 46 6.9 44.5
11:35 1022 30.18 851 25.13 17.6 63.7 48 6.7 44
11:40 1022 30.18 851 25.13 17.9 64.2 47 6.5 43.6
11:45 1022 30.18 851 25.13 18.4 65.1 48 7.2 45
11:50 1022 30.18 851 25.13 17.8 64.1 49 7.2 45
11:55 1022 30.18 851 25.13 18.2 64.8 47 6.8 44.2
12:00 1022 30.18 851 25.13 17.7 63.9 49 6.9 44.5
12:05 1022 30.18 851 25.13 18 64.4 48 6.8 44.3
12:10 1022 30.18 851 25.13 18.8 65.9 44 6.3 43.4
12:15 1022 30.18 851 25.13 19 66.2 46 7.1 44.8
12:20 1021 30.15 851 25.13 19 66.3 45 7 44.7
12:25 1021 30.15 851 25.13 18.5 65.3 49 7.6 45.6
12:30 1021 30.15 851 25.13 18.4 65.2 48 7.5 45.5
12:35 1021 30.15 850 25.1 18.4 65.2 46 6.7 44.1
12:40 1021 30.15 850 25.1 18.4 65.1 49 7.5 45.6
12:45 1021 30.15 850 25.1 18.9 66 45 6.8 44.2
12:50 1021 30.15 850 25.1 19.8 67.7 43 7 44.7
12:55 1021 30.15 850 25.1 20.3 68.5 42 7 44.7
13:00 1021 30.15 850 25.1 19.8 67.7 43 7.1 44.8
13:05 1021 30.15 850 25.1 19.6 67.2 44 7.2 44.9
13:10 1021 30.15 850 25.1 20.5 68.9 42 7.5 45.4
13:15 1021 30.15 850 25.1 20.9 69.7 40 6.8 44.3
13:20 1021 30.15 850 25.1 20.4 68.7 42 7.3 45.1
13:25 1021 30.15 850 25.1 19.5 67.1 44 7.1 44.7
13:30 1021 30.15 850 25.1 20.6 69.2 39 6.3 43.3
13:35 1021 30.15 850 25.1 21.7 71.1 41 8.1 46.5
13:40 1021 30.15 850 25.1 20.7 69.3 42 7.4 45.4
13:45 1021 30.15 850 25.1 21 69.7 41 7.2 45
13:50 1020 30.12 850 25.1 20.9 69.6 42 7.7 45.9
13:55 1020 30.12 850 25.1 20.9 69.7 38 6.3 43.4
14:00 1020 30.12 850 25.1 21.7 71 37 6.7 44
14:05 1020 30.12 850 25.1 22.6 72.6 36 7.1 44.8
14:10 1020 30.12 850 25.1 22.1 71.8 35 6.2 43.1
14:15 1020 30.12 850 25.1 22.1 71.8 33 5.2 41.4
14:20 1020 30.12 849 25.07 22.9 73.1 31 4.8 40.7
14:25 1020 30.12 849 25.07 22.4 72.3 32 5 41
14:30 1020 30.12 849 25.07 22.6 72.7 29 3.8 38.8
14:35 1020 30.12 849 25.07 22.3 72.2 33 5.4 41.7
14:40 1020 30.12 849 25.07 22 71.6 31 4.1 39.3
14:45 1020 30.12 849 25.07 22.8 73.1 28 3.8 38.8
14:50 1020 30.12 849 25.07 23.8 74.9 28 4.6 40.2
14:55 1020 30.12 849 25.07 23.8 74.8 33 6.6 43.9
15:00 1020 30.12 849 25.07 22.6 72.7 31 4.7 40.5
15:05 1020 30.12 849 25.07 22.7 72.9 28 3.3 37.9
15:10 1020 30.12 849 25.07 23.3 73.9 27 3.5 38.3
15:15 1020 30.12 849 25.07 23 73.4 27 3.2 37.7
15:20 1020 30.12 849 25.07 22.2 72 27 2.5 36.5
15:25 1020 30.12 849 25.07 22.7 72.9 26 2.4 36.2
15:30 1019 30.09 849 25.07 24.2 75.6 23 2 35.6
15:35 1019 30.09 849 25.07 24 75.2 23 2 35.6
15:40 1019 30.09 849 25.07 23.2 73.8 24 1.9 35.4
15:45 1019 30.09 849 25.07 23.9 75.1 23 1.8 35.3
15:50 1019 30.09 849 25.07 24.6 76.2 23 2.6 36.7
15:55 1019 30.09 848 25.04 25 77 21 1.2 34.2
16:00 1019 30.09 848 25.04 25.3 77.5 20 1.2 34.2
16:05 1019 30.09 848 25.04 25.6 78 21 1.6 34.9
16:10 1019 30.09 848 25.04 25.6 78 21 1.6 34.9
16:15 1019 30.09 848 25.04 25.9 78.5 20 1.1 34
16:20 1019 30.09 848 25.04 25 77 21 1.7 35.1
16:25 1019 30.09 848 25.04 24.8 76.7 21 1.4 34.6
16:30 1019 30.09 848 25.04 25.6 78.1 20 1.4 34.5
16:35 1019 30.09 848 25.04 26.1 79 19 1.2 34.2
16:40 1019 30.09 848 25.04 25.7 78.3 19 1 33.7
16:45 1019 30.09 848 25.04 25 77 21 1.4 34.5
16:50 1019 30.09 848 25.04 24.4 75.8 21 0.6 33.1
16:55 1019 30.09 848 25.04 23.7 74.6 20 -0.2 31.6
17:00 1018 30.06 848 25.04 24 75.2 22 1.4 34.5
17:05 1018 30.06 848 25.04 23.7 74.6 20 -0.5 31.1
17:10 1018 30.06 848 25.04 23.7 74.6 20 -0.1 31.8
17:15 1018 30.06 848 25.04 23.7 74.7 20 -0.1 31.8
17:20 1018 30.06 848 25.04 23.8 74.8 20 -0.5 31.1
17:25 1018 30.06 848 25.04 24.3 75.7 19 -0.5 31.1
17:30 1018 30.06 847 25.01 24.7 76.5 19 -0.5 31.1
17:35 1018 30.06 847 25.01 24.6 76.3 19 -0.3 31.5
17:40 1018 30.06 847 25.01 25.2 77.4 19 -0 32
17:45 1018 30.06 847 25.01 24.2 75.6 19 -0.5 31.1
17:50 1018 30.06 847 25.01 24 75.1 20 -0.2 31.7
17:55 1018 30.06 847 25.01 24 75.2 19 -1 30.2
18:00 1018 30.06 847 25.01 23.5 74.3 20 -0.3 31.4
18:05 1018 30.06 847 25.01 23.3 74 20 -1 30.3
18:10 1018 30.06 847 25.01 23.4 74.1 19 -1.1 30.1
18:15 1018 30.06 847 25.01 23.3 73.9 20 -0.9 30.3
18:20 1018 30.06 847 25.01 23.1 73.6 20 -0.9 30.4
18:25 1019 30.09 848 25.04 23.2 73.7 20 -1 30.2
18:30 1019 30.09 848 25.04 23 73.4 21 -0.3 31.5
18:35 1019 30.09 848 25.04 22.2 72 29 3.4 38.1
18:40 1019 30.09 848 25.04 21.7 71 28 2.4 36.4
18:45 1019 30.09 849 25.07 21.5 70.8 29 3.2 37.7
18:50 1019 30.09 849 25.07 21.2 70.1 31 3.6 38.4
18:55 1019 30.09 849 25.07 20.8 69.5 34 4.6 40.2
19:00 1019 30.09 848 25.04 20.5 68.9 32 3.5 38.2
19:05 1018 30.06 848 25.04 20.1 68.1 31 2.6 36.7
19:10 1018 30.06 847 25.01 20 68.1 32 2.9 37.3
19:15 1018 30.06 847 25.01 20.2 68.3 31 2.6 36.6
19:20 1018 30.06 848 25.04 20.3 68.5 36 4.7 40.4
19:25 1018 30.06 848 25.04 19.4 66.9 45 7.4 45.3
19:30 1018 30.06 848 25.04 18.2 64.7 51 7.9 46.2
19:35 1018 30.06 848 25.04 17.8 64.1 51 7.6 45.7
19:40 1018 30.06 848 25.04 17.5 63.5 53 8 46.4
19:45 1018 30.06 848 25.04 17.2 62.9 52 7.4 45.3
19:50 1018 30.06 848 25.04 17 62.6 52 7.2 44.9
19:55 1018 30.06 847 25.01 16.9 62.5 52 7.2 45
20:00 1018 30.06 847 25.01 16.7 62 54 7.5 45.5
20:05 1018 30.06 847 25.01 16.4 61.4 57 7.8 46.1
20:10 1018 30.06 847 25.01 16.1 61 59 8.1 46.5
20:15 1018 30.06 847 25.01 15.5 60 62 8.5 47.2
20:20 1018 30.06 848 25.04 15.4 59.7 61 7.9 46.3
20:25 1018 30.06 848 25.04 15.7 60.2 58 7.5 45.5
20:30 1018 30.06 848 25.04 15.8 60.4 59 8 46.4
20:35 1018 30.06 848 25.04 15.7 60.2 57 7.4 45.3
20:40 1019 30.09 848 25.04 16 60.9 53 6.7 44
20:45 1019 30.09 848 25.04 16.2 61.2 53 6.6 43.9
20:50 1019 30.09 848 25.04 16.3 61.3 51 6.3 43.4
20:55 1019 30.09 848 25.04 16.4 61.6 51 6.3 43.3
21:00 1019 30.09 848 25.04 16.6 61.9 49 5.9 42.7
21:05 1019 30.09 848 25.04 16.7 62.1 49 6 42.7
21:10 1018 30.06 848 25.04 16.8 62.2 48 5.9 42.6
21:15 1018 30.06 848 25.04 16.8 62.2 47 5.6 42.1
21:20 1018 30.06 848 25.04 16.8 62.3 47 5.6 42.1
21:25 1018 30.06 848 25.04 16.7 62.1 48 5.9 42.6
21:30 1018 30.06 848 25.04 16.4 61.5 50 6.2 43.1
21:35 1018 30.06 848 25.04 16.2 61.1 52 6.3 43.3
21:40 1018 30.06 848 25.04 16 60.7 51 5.9 42.5
21:45 1018 30.06 848 25.04 16.2 61.1 50 5.8 42.5
21:50 1018 30.06 848 25.04 16.1 61.1 51 6 42.8
21:55 1018 30.06 848 25.04 16 60.9 51 6.1 43
22:00 1018 30.06 848 25.04 16 60.7 51 5.9 42.6
22:05 1018 30.06 848 25.04 16 60.7 51 5.9 42.6
22:10 1018 30.06 848 25.04 15.9 60.6 51 6 42.8
22:15 1018 30.06 848 25.04 15.9 60.7 53 6.4 43.6
22:20 1018 30.06 848 25.04 16 60.8 55 7 44.6
22:25 1018 30.06 848 25.04 16.1 60.9 55 7.2 45
22:30 1018 30.06 848 25.04 15.9 60.6 57 7.5 45.5
22:35 1018 30.06 847 25.01 15.8 60.5 59 7.8 46.1
22:40 1018 30.06 848 25.04 15.8 60.4 60 8.1 46.6
22:45 1018 30.06 847 25.01 15.9 60.6 60 8.2 46.8
22:50 1018 30.06 847 25.01 15.9 60.5 60 8.2 46.8
22:55 1018 30.06 847 25.01 15.9 60.5 61 8.4 47.1
23:00 1018 30.06 847 25.01 15.7 60.3 61 8.4 47.2
23:05 1018 30.06 847 25.01 15.6 60.2 63 8.6 47.5
23:10 1018 30.06 847 25.01 15.5 60 64 8.7 47.7
23:15 1018 30.06 847 25.01 15.6 60 64 8.9 48
23:20 1018 30.06 847 25.01 15.6 60.1 65 9 48.3
23:25 1018 30.06 847 25.01 15.5 59.9 65 9.1 48.3
23:30 1018 30.06 847 25.01 15.4 59.7 66 9.3 48.7
23:35 1018 30.06 847 25.01 15.4 59.6 67 9.3 48.8
23:40 1018 30.06 847 25.01 15.3 59.5 68 9.4 48.9
23:45 1018 30.06 847 25.01 15.2 59.4 69 9.6 49.2
23:50 1018 30.06 847 25.01 15.2 59.3 69 9.6 49.3
23:55 1018 30.06 847 25.01 15 59.1 71 9.8 49.7
24:00 1018 30.06 847 25.01 14.9 58.9 72 9.9 49.8